Anadyr', Russia

5:24 PM ANAT on July 31, 2014 (GMT +1200)
Ugolny (UHMA) Elev 203 ft | 64.78 °N, 177.57 °E | Change Station

Current weather conditions updated 24 minutes ago

Overcast
Overcast
61 °F
Feels Like 61 °F
N
11
Wind Variable Wind from SSE

Tomorrow is forecast to be Warmer than today.

Today
High -- | Low -- °F
--% Chance of Precip.
Yesterday
High -- | Low -- °F
Precip. -- in
3:04 AM 9:25 PM
Waxing Crescent, 16% visible
Pressure 30.01 in
Visibility 6.2 miles
Clouds Few 2000 ft
Overcast 8000 ft
Dew Point 54 °F
Humidity 77%
Rainfall 0.00 in
Snow Depth Not available.
UV 1 out of 12
Pollen Not available.
Air Quality Not available.
Flu Activity Not available.
METAR UHMA 310500Z 16005MPS 9999 FEW020 OVC080 16/12 Q1016 NOSIG RMK QFE757/1009 880///60

More Conditions Fewer Conditions

Pressure 30.01 in
Visibility 6.2 miles
Clouds Few 2000 ft
Overcast 8000 ft
Dew Point 54 °F
Humidity 77%
Rainfall 0.00 in
Snow Depth Not available.
UV 1 out of 12
Pollen Not available.
Air Quality Not available.
Flu Activity Not available.
METAR UHMA 310500Z 16005MPS 9999 FEW020 OVC080 16/12 Q1016 NOSIG RMK QFE757/1009 880///60

More Conditions Fewer Conditions

10-Day Weather Forecast

Almanac

Astronomy

Jul. 31, 2014 Rise Set
Actual Time 3:04 AM ANAT 9:25 PM ANAT
Civil Twilight 1:15 AM ANAT 11:08 PM ANAT
Nautical Twilight Sun does not rise Sun does not rise
Astronomical Twilight Sun does not rise Sun does not rise
Moon 8:45 AM ANAT 9:12 PM ANAT
Length of Visible Light 21h 53m
Length of Day
18h 21m
Tomorrow will be 6m 56s shorter.
Waxing Crescent, 16% of the Moon is Illuminated
Today
Waxing Crescent
Aug 3
First Quarter
Aug 10
Full
Aug 17
Last Quarter
Aug 25
New

Yesterday's Extremes

Country Highs Country Lows

Community

WunderPhotos

Upload Photos

1,739,248 photos uploaded!

Nearby

Snow Depth

Not available.

Earthquake Activity

City Distance Mag. Time & Date
No recent earthquake activity has been reported nearby.
Minimum magnitude displayed is 2.5.

Coastal Water Temperatures

Place Temperature
No Stations Reporting

Nearby Weather Stations

There are no personal weather stations in this area.